Time;durP1;ratioP1;P1;durP2;ratioP2;P2;SDS_P1;SDS_P2;PMS_P1;PMS_P2;Temp;Humidity;BMP_temperature;BMP_pressure;BME280_temperature;BME280_humidity;BME280_pressure;Samples;Min_cycle;Max_cycle;Signal;HPM_P1;HPM_P2
2022/07/29 00:02:06;;;;;;;;;;;;;;;;;;5052243;28;1318;-69
2022/07/29 00:04:34;;;;;;;;;;;;;;;;;;5053006;28;980;-69
2022/07/29 00:07:00;;;;;;;;;;;;;;;;;;5034842;28;2001;-69
2022/07/29 00:09:28;;;;;;;;;;;;;;;;;;5052937;28;869;-70
2022/07/29 00:11:54;;;;;;;;;;;;;;;;;;5052187;28;988;-70
2022/07/29 00:14:20;;;;;;;;;;;;;;;;;;5034407;28;1309;-70
2022/07/29 00:16:46;;;;;;;;;;;;;;;;;;5052838;28;1068;-69
2022/07/29 00:19:12;;;;;;;;;;;;;;;;;;5052687;28;1040;-68
2022/07/29 00:21:39;;;;;;;;;;;;;;;;;;5052420;28;1055;-69
2022/07/29 00:24:05;;;;;;;;;;;;;;;;;;5052278;28;1312;-69
2022/07/29 00:26:33;;;;;;;;;;;;;;;;;;5052233;28;1973;-69
2022/07/29 00:28:59;;;;;;;;;;;;;;;;;;5052210;28;916;-68
2022/07/29 00:31:25;;;;;;;;;;;;;;;;;;5052019;28;925;-68
2022/07/29 00:33:51;;;;;;;;;;;;;;;;;;5052397;28;1320;-70
2022/07/29 00:36:17;;;;;;;;;;;;;;;;;;5052122;28;1130;-70
2022/07/29 00:38:45;;;;;;;;;;;;;;;;;;5052246;28;1119;-69
2022/07/29 00:41:11;;;;;;;;;;;;;;;;;;5051843;28;771;-69
2022/07/29 00:43:38;;;;;;;;;;;;;;;;;;5051652;28;1389;-69
2022/07/29 00:46:05;;;;;;;;;;;;;;;;;;5051823;28;1984;-69
2022/07/29 00:48:31;;;;;;;;;;;;;;;;;;5033692;28;1148;-71
2022/07/29 00:50:58;;;;;;;;;;;;;;;;;;5052202;28;846;-70
2022/07/29 00:53:24;;;;;;;;;;;;;;;;;;5051531;28;1327;-70
2022/07/29 00:55:50;;;;;;;;;;;;;;;;;;5051707;28;957;-70
2022/07/29 00:58:16;;;;;;;;;;;;;;;;;;5051576;28;1063;-70
2022/07/29 01:00:44;;;;;;;;;;;;;;;;;;5051663;28;993;-70
2022/07/29 01:03:10;;;;;;;;;;;;;;;;;;5051082;28;1281;-69
2022/07/29 01:05:36;;;;;;;;;;;;;;;;;;5051367;28;1068;-70
2022/07/29 01:08:03;;;;;;;;;;;;;;;;;;5050945;28;1976;-70
2022/07/29 01:10:29;;;;;;;;;;;;;;;;;;5051496;28;1075;-69
2022/07/29 01:12:56;;;;;;;;;;;;;;;;;;5051050;28;1334;-70
2022/07/29 01:15:22;;;;;;;;;;;;;;;;;;5051183;28;873;-69
2022/07/29 01:17:51;;;;;;;;;;;;;;;;;;5051460;28;1067;-69
2022/07/29 01:20:19;;;;;;;;;;;;;;;;;;5051245;28;1118;-68
2022/07/29 01:22:59;;;;;;;;;;;;;;;;;;5033038;28;2072;-69
2022/07/29 01:25:33;;;;;;;;;;;;;;;;;;5033323;28;1028;-69
2022/07/29 01:28:02;;;;;;;;;;;;;;;;;;5033432;28;1922;-70
2022/07/29 01:30:31;;;;;;;;;;;;;;;;;;5051374;28;830;-69
2022/07/29 01:32:59;;;;;;;;;;;;;;;;;;5051199;28;1319;-70
2022/07/29 01:35:27;;;;;;;;;;;;;;;;;;5051078;28;1051;-70
2022/07/29 01:37:55;;;;;;;;;;;;;;;;;;5051025;28;806;-69
2022/07/29 01:40:26;;;;;;;;;;;;;;;;;;5051424;28;948;-69
2022/07/29 01:42:53;;;;;;;;;;;;;;;;;;5050685;28;1388;-69
2022/07/29 01:45:19;;;;;;;;;;;;;;;;;;5050898;28;1083;-69
2022/07/29 01:47:47;;;;;;;;;;;;;;;;;;5051308;28;1952;-69
2022/07/29 01:50:15;;;;;;;;;;;;;;;;;;5050797;28;948;-69
2022/07/29 01:52:43;;;;;;;;;;;;;;;;;;5050690;28;1312;-68
2022/07/29 01:55:10;;;;;;;;;;;;;;;;;;5050693;28;1119;-69
2022/07/29 01:57:36;;;;;;;;;;;;;;;;;;5051044;28;1067;-68
2022/07/29 02:00:04;;;;;;;;;;;;;;;;;;5050510;28;952;-69
2022/07/29 02:02:37;;;;;;;;;;;;;;;;;;5050530;28;1338;-68
2022/07/29 02:05:05;;;;;;;;;;;;;;;;;;5050598;28;929;-68
2022/07/29 02:07:32;;;;;;;;;;;;;;;;;;5050914;28;1918;-69
2022/07/29 02:09:58;;;;;;;;;;;;;;;;;;5057221;28;1076;-69
2022/07/29 02:12:24;;;;;;;;;;;;;;;;;;5057082;28;1318;-69
2022/07/29 02:14:51;;;;;;;;;;;;;;;;;;5057525;28;1042;-70
2022/07/29 02:17:27;;;;;;;;;;;;;;;;;;5039121;28;1333;-69
2022/07/29 02:19:53;;;;;;;;;;;;;;;;;;5057461;28;715;-69
2022/07/29 02:22:21;;;;;;;;;;;;;;;;;;5056626;28;1427;-69
2022/07/29 02:24:47;;;;;;;;;;;;;;;;;;5057485;28;1154;-69
2022/07/29 02:27:13;;;;;;;;;;;;;;;;;;5057170;28;1980;-69
2022/07/29 02:29:39;;;;;;;;;;;;;;;;;;5057224;28;1123;-70
2022/07/29 02:32:05;;;;;;;;;;;;;;;;;;5056805;28;1305;-69
2022/07/29 02:34:32;;;;;;;;;;;;;;;;;;5056945;28;940;-70
2022/07/29 02:36:58;;;;;;;;;;;;;;;;;;5057014;28;1083;-70
2022/07/29 02:39:25;;;;;;;;;;;;;;;;;;5057196;28;798;-68
2022/07/29 02:41:52;;;;;;;;;;;;;;;;;;5057214;28;1161;-70
2022/07/29 02:44:19;;;;;;;;;;;;;;;;;;5038996;28;1407;-69
2022/07/29 02:46:46;;;;;;;;;;;;;;;;;;5056879;28;1914;-70
2022/07/29 02:49:14;;;;;;;;;;;;;;;;;;5057029;28;1068;-70
2022/07/29 02:51:41;;;;;;;;;;;;;;;;;;5038798;28;1168;-69
2022/07/29 02:54:07;;;;;;;;;;;;;;;;;;5056466;28;1375;-69
2022/07/29 02:56:37;;;;;;;;;;;;;;;;;;5056983;28;1000;-69
2022/07/29 02:59:04;;;;;;;;;;;;;;;;;;5056713;28;1408;-70
2022/07/29 03:01:31;;;;;;;;;;;;;;;;;;5054439;28;1535;-69
2022/07/29 03:03:57;;;;;;;;;;;;;;;;;;5057328;22;4036;-74
2022/07/29 03:06:24;;;;;;;;;;;;;;;;;;5097032;28;1914;-78
2022/07/29 03:08:50;;;;;;;;;;;;;;;;;;5097272;28;1052;-76
2022/07/29 03:11:16;;;;;;;;;;;;;;;;;;5096916;28;833;-76
2022/07/29 03:13:44;;;;;;;;;;;;;;;;;;5078742;28;1325;-75
2022/07/29 03:16:10;;;;;;;;;;;;;;;;;;5097638;28;1075;-74
2022/07/29 03:18:37;;;;;;;;;;;;;;;;;;5079050;28;1143;-74
2022/07/29 03:21:03;;;;;;;;;;;;;;;;;;5092866;28;1111;-77
2022/07/29 03:23:29;;;;;;;;;;;;;;;;;;5075263;28;1364;-75
2022/07/29 03:25:56;;;;;;;;;;;;;;;;;;5093931;28;794;-75
2022/07/29 03:28:22;;;;;;;;;;;;;;;;;;5093753;28;1983;-74
2022/07/29 03:30:50;;;;;;;;;;;;;;;;;;5093269;28;798;-73
2022/07/29 03:33:16;;;;;;;;;;;;;;;;;;5093529;28;1067;-77
2022/07/29 03:35:42;;;;;;;;;;;;;;;;;;5093567;28;1293;-75
2022/07/29 03:38:08;;;;;;;;;;;;;;;;;;5093928;28;1075;-75
2022/07/29 03:40:36;;;;;;;;;;;;;;;;;;5075674;28;1317;-74
2022/07/29 03:43:03;;;;;;;;;;;;;;;;;;5073081;28;1594;-73
2022/07/29 03:45:29;;;;;;;;;;;;;;;;;;5077426;28;1416;-75
2022/07/29 03:47:58;;;;;;;;;;;;;;;;;;5093352;28;1973;-74
2022/07/29 03:50:25;;;;;;;;;;;;;;;;;;5063586;28;1439;-74
2022/07/29 03:52:51;;;;;;;;;;;;;;;;;;5089109;28;1121;-79
2022/07/29 03:55:17;;;;;;;;;;;;;;;;;;5075460;28;1388;-78
2022/07/29 03:57:43;;;;;;;;;;;;;;;;;;5070471;28;1419;-78
2022/07/29 04:00:10;;;;;;;;;;;;;;;;;;5084117;28;1316;-76
2022/07/29 04:02:36;;;;;;;;;;;;;;;;;;5093008;28;1063;-76
2022/07/29 04:05:04;;;;;;;;;;;;;;;;;;5092759;28;1356;-76
2022/07/29 04:07:30;;;;;;;;;;;;;;;;;;5092972;28;1909;-76
2022/07/29 04:09:57;;;;;;;;;;;;;;;;;;5086824;28;1441;-77
2022/07/29 04:12:23;;;;;;;;;;;;;;;;;;5065361;28;1439;-76
2022/07/29 04:14:50;;;;;;;;;;;;;;;;;;5088377;28;1440;-76
2022/07/29 04:17:16;;;;;;;;;;;;;;;;;;5083833;28;1645;-75
2022/07/29 04:19:42;;;;;;;;;;;;;;;;;;5059539;28;1481;-76
2022/07/29 04:22:10;;;;;;;;;;;;;;;;;;5071723;28;1600;-76
2022/07/29 04:24:36;;;;;;;;;;;;;;;;;;5083279;28;1481;-76
2022/07/29 04:27:02;;;;;;;;;;;;;;;;;;5079516;28;2000;-75
2022/07/29 04:29:28;;;;;;;;;;;;;;;;;;5086106;28;1393;-75
2022/07/29 04:31:55;;;;;;;;;;;;;;;;;;5088236;28;1150;-78
2022/07/29 04:34:21;;;;;;;;;;;;;;;;;;5074392;28;1470;-75
2022/07/29 04:36:47;;;;;;;;;;;;;;;;;;5092510;28;1083;-75
2022/07/29 04:39:15;;;;;;;;;;;;;;;;;;5073679;28;1155;-75
2022/07/29 04:41:41;;;;;;;;;;;;;;;;;;5060648;28;1247;-76
2022/07/29 04:44:07;;;;;;;;;;;;;;;;;;5044099;28;1561;-76
2022/07/29 04:46:33;;;;;;;;;;;;;;;;;;5062728;28;1363;-76
2022/07/29 04:48:59;;;;;;;;;;;;;;;;;;5041860;28;1914;-76
2022/07/29 04:51:25;;;;;;;;;;;;;;;;;;5061599;28;1410;-76
2022/07/29 04:53:52;;;;;;;;;;;;;;;;;;5060392;28;1502;-75
2022/07/29 04:56:19;;;;;;;;;;;;;;;;;;5067575;28;1289;-76
2022/07/29 04:58:45;;;;;;;;;;;;;;;;;;5062608;28;1390;-74
2022/07/29 05:01:12;;;;;;;;;;;;;;;;;;5042863;28;1653;-73
2022/07/29 05:03:38;;;;;;;;;;;;;;;;;;5061285;28;1401;-75
2022/07/29 05:06:04;;;;;;;;;;;;;;;;;;5060511;28;1294;-75
2022/07/29 05:08:30;;;;;;;;;;;;;;;;;;5060996;28;1914;-75
2022/07/29 05:10:56;;;;;;;;;;;;;;;;;;5062090;28;1200;-75
2022/07/29 05:13:24;;;;;;;;;;;;;;;;;;5060117;28;1307;-76
2022/07/29 05:15:50;;;;;;;;;;;;;;;;;;5060891;28;1373;-74
2022/07/29 05:18:16;;;;;;;;;;;;;;;;;;5044078;28;1251;-76
2022/07/29 05:20:42;;;;;;;;;;;;;;;;;;5059702;28;1661;-75
2022/07/29 05:23:09;;;;;;;;;;;;;;;;;;5060096;28;1254;-75
2022/07/29 05:25:35;;;;;;;;;;;;;;;;;;5062016;28;1272;-75
2022/07/29 05:28:01;;;;;;;;;;;;;;;;;;5059622;28;1973;-76
2022/07/29 05:30:28;;;;;;;;;;;;;;;;;;5060868;28;1317;-75
2022/07/29 05:32:55;;;;;;;;;;;;;;;;;;5058595;28;1231;-73
2022/07/29 05:35:21;;;;;;;;;;;;;;;;;;5059075;28;1501;-76
2022/07/29 05:37:47;;;;;;;;;;;;;;;;;;5052703;28;1318;-75
2022/07/29 05:40:13;;;;;;;;;;;;;;;;;;5050936;28;1079;-76
2022/07/29 05:42:40;;;;;;;;;;;;;;;;;;5058743;28;1525;-76
2022/07/29 05:45:06;;;;;;;;;;;;;;;;;;5086503;28;1757;-76
2022/07/29 05:47:34;;;;;;;;;;;;;;;;;;5070738;28;1914;-76
2022/07/29 05:50:00;;;;;;;;;;;;;;;;;;5059621;28;1215;-76
2022/07/29 05:52:26;;;;;;;;;;;;;;;;;;5062447;28;1089;-75
2022/07/29 05:54:52;;;;;;;;;;;;;;;;;;5070340;28;1308;-75
2022/07/29 05:57:18;;;;;;;;;;;;;;;;;;5070782;28;774;-75
2022/07/29 05:59:45;;;;;;;;;;;;;;;;;;5070164;28;1129;-74
2022/07/29 06:02:11;;;;;;;;;;;;;;;;;;5070537;28;1027;-76
2022/07/29 06:04:38;;;;;;;;;;;;;;;;;;5070291;28;1434;-77
2022/07/29 06:07:05;;;;;;;;;;;;;;;;;;5070569;28;1071;-78
2022/07/29 06:09:31;;;;;;;;;;;;;;;;;;5070361;28;1910;-76
2022/07/29 06:11:57;;;;;;;;;;;;;;;;;;5069816;28;920;-76
2022/07/29 06:14:23;;;;;;;;;;;;;;;;;;5052271;28;1442;-75
2022/07/29 06:16:50;;;;;;;;;;;;;;;;;;5070094;28;1118;-75
2022/07/29 06:19:16;;;;;;;;;;;;;;;;;;5070236;28;947;-76
2022/07/29 06:21:43;;;;;;;;;;;;;;;;;;5069536;28;1066;-76
2022/07/29 06:24:11;;;;;;;;;;;;;;;;;;5070320;28;1305;-74
2022/07/29 06:26:37;;;;;;;;;;;;;;;;;;5052205;28;1118;-75
2022/07/29 06:29:03;;;;;;;;;;;;;;;;;;5069575;28;1968;-75
2022/07/29 06:31:29;;;;;;;;;;;;;;;;;;5069418;28;1058;-75
2022/07/29 06:33:55;;;;;;;;;;;;;;;;;;5069940;28;1267;-74
2022/07/29 06:36:21;;;;;;;;;;;;;;;;;;5070243;28;1023;-77
2022/07/29 06:38:49;;;;;;;;;;;;;;;;;;5069621;28;781;-75
2022/07/29 06:41:15;;;;;;;;;;;;;;;;;;5070129;28;1149;-77
2022/07/29 06:43:43;;;;;;;;;;;;;;;;;;5066441;28;1898;-75
2022/07/29 06:46:10;;;;;;;;;;;;;;;;;;5069625;28;1154;-75
2022/07/29 06:48:36;;;;;;;;;;;;;;;;;;5069855;28;1973;-76
2022/07/29 06:51:03;;;;;;;;;;;;;;;;;;5069042;28;1169;-76
2022/07/29 06:53:29;;;;;;;;;;;;;;;;;;5051496;28;1377;-75
2022/07/29 06:55:57;;;;;;;;;;;;;;;;;;5055015;28;1149;-75
2022/07/29 06:58:24;;;;;;;;;;;;;;;;;;5074167;28;834;-74
2022/07/29 07:00:55;;;;;;;;;;;;;;;;;;5073154;28;801;-75
2022/07/29 07:03:22;;;;;;;;;;;;;;;;;;5073301;28;1114;-74
2022/07/29 07:05:48;;;;;;;;;;;;;;;;;;5072577;28;1515;-75
2022/07/29 07:08:15;;;;;;;;;;;;;;;;;;5066653;28;1972;-75
2022/07/29 07:10:42;;;;;;;;;;;;;;;;;;5084891;28;1115;-75
2022/07/29 07:13:09;;;;;;;;;;;;;;;;;;5075263;28;1266;-75
2022/07/29 07:15:36;;;;;;;;;;;;;;;;;;5093460;28;1403;-76
2022/07/29 07:18:02;;;;;;;;;;;;;;;;;;5093352;28;1083;-75
2022/07/29 07:20:28;;;;;;;;;;;;;;;;;;5093315;28;1067;-77
2022/07/29 07:22:54;;;;;;;;;;;;;;;;;;5093078;28;1051;-76
2022/07/29 07:25:20;;;;;;;;;;;;;;;;;;5092877;28;1404;-76
2022/07/29 07:27:47;;;;;;;;;;;;;;;;;;5079214;28;1961;-76
2022/07/29 07:30:14;;;;;;;;;;;;;;;;;;5054113;28;1748;-77
2022/07/29 07:32:41;;;;;;;;;;;;;;;;;;5086990;28;1373;-76
2022/07/29 07:35:08;;;;;;;;;;;;;;;;;;5093207;28;1359;-75
2022/07/29 07:37:34;;;;;;;;;;;;;;;;;;5074929;28;1527;-76
2022/07/29 07:40:00;;;;;;;;;;;;;;;;;;5092848;28;1106;-75
2022/07/29 07:42:27;;;;;;;;;;;;;;;;;;5092594;28;675;-76
2022/07/29 07:44:53;;;;;;;;;;;;;;;;;;5092823;28;1309;-76
2022/07/29 07:47:20;;;;;;;;;;;;;;;;;;5093157;28;1104;-77
2022/07/29 07:49:47;;;;;;;;;;;;;;;;;;5092503;28;1906;-76
2022/07/29 07:52:13;;;;;;;;;;;;;;;;;;5092699;28;1015;-76
2022/07/29 07:54:39;;;;;;;;;;;;;;;;;;5092779;28;1339;-76
2022/07/29 07:57:05;;;;;;;;;;;;;;;;;;5074856;28;1146;-76
2022/07/29 07:59:32;;;;;;;;;;;;;;;;;;5092364;28;1078;-75
2022/07/29 08:01:59;;;;;;;;;;;;;;;;;;5091978;28;676;-76
2022/07/29 08:04:27;;;;;;;;;;;;;;;;;;5092387;28;1359;-77
2022/07/29 08:06:54;;;;;;;;;;;;;;;;;;5091560;28;991;-76
2022/07/29 08:09:20;;;;;;;;;;;;;;;;;;5092415;28;1979;-76
2022/07/29 08:11:46;;;;;;;;;;;;;;;;;;5091898;28;1137;-77
2022/07/29 08:14:13;;;;;;;;;;;;;;;;;;5092282;28;1317;-76
2022/07/29 08:16:39;;;;;;;;;;;;;;;;;;5070211;28;1246;-76
2022/07/29 08:19:05;;;;;;;;;;;;;;;;;;5055419;28;917;-77
2022/07/29 08:21:33;;;;;;;;;;;;;;;;;;5051304;28;1285;-76
2022/07/29 08:26:40;;;;;;;;;;;;;;;;;;5056113;28;1256;-76
2022/07/29 08:29:06;;;;;;;;;;;;;;;;;;5063529;28;1910;-76
2022/07/29 08:31:32;;;;;;;;;;;;;;;;;;5059731;28;1358;-76
2022/07/29 08:33:59;;;;;;;;;;;;;;;;;;5061376;28;1525;-76
2022/07/29 08:36:25;;;;;;;;;;;;;;;;;;5061427;28;1402;-77
2022/07/29 08:38:53;;;;;;;;;;;;;;;;;;5056832;28;1278;-77
2022/07/29 08:41:19;;;;;;;;;;;;;;;;;;5033234;28;1426;-76
2022/07/29 08:43:45;;;;;;;;;;;;;;;;;;5051182;28;1329;-77
2022/07/29 08:46:11;;;;;;;;;;;;;;;;;;5051382;28;1084;-76
2022/07/29 08:48:38;;;;;;;;;;;;;;;;;;5051108;28;1914;-76
2022/07/29 08:51:04;;;;;;;;;;;;;;;;;;5033217;28;1290;-76
2022/07/29 08:53:30;;;;;;;;;;;;;;;;;;5050570;28;1325;-74
2022/07/29 08:55:57;;;;;;;;;;;;;;;;;;5051122;28;1075;-77
2022/07/29 08:58:24;;;;;;;;;;;;;;;;;;5050898;28;1079;-77
2022/07/29 09:00:51;;;;;;;;;;;;;;;;;;5032909;28;1458;-77
2022/07/29 09:03:19;;;;;;;;;;;;;;;;;;5050730;28;952;-77
2022/07/29 09:05:45;;;;;;;;;;;;;;;;;;5032979;28;1374;-76
2022/07/29 09:08:12;;;;;;;;;;;;;;;;;;5050947;28;1016;-77
2022/07/29 09:10:38;;;;;;;;;;;;;;;;;;5050412;28;1914;-76
2022/07/29 09:13:05;;;;;;;;;;;;;;;;;;5050376;28;921;-76
2022/07/29 09:15:32;;;;;;;;;;;;;;;;;;5056782;28;1527;-77
2022/07/29 09:17:59;;;;;;;;;;;;;;;;;;5032587;28;1337;-75
2022/07/29 09:22:53;;;;;;;;;;;;;;;;;;5023826;28;2225;-72
2022/07/29 09:25:32;;;;;;;;;;;;;;;;;;5030760;28;1493;-72
2022/07/29 09:28:07;;;;;;;;;;;;;;;;;;5030989;28;1067;-72
2022/07/29 09:30:33;;;;;;;;;;;;;;;;;;5030225;28;1930;-71
2022/07/29 09:33:01;;;;;;;;;;;;;;;;;;5030478;28;798;-72
2022/07/29 09:35:28;;;;;;;;;;;;;;;;;;5030686;28;890;-71
2022/07/29 09:37:54;;;;;;;;;;;;;;;;;;5030733;28;1067;-72
2022/07/29 09:40:22;;;;;;;;;;;;;;;;;;5030348;28;1411;-72
2022/07/29 09:42:48;;;;;;;;;;;;;;;;;;5018635;28;1106;-71
2022/07/29 09:45:26;;;;;;;;;;;;;;;;;;5020438;28;1100;-72
2022/07/29 09:47:53;;;;;;;;;;;;;;;;;;5010767;28;1073;-72
2022/07/29 09:50:23;;;;;;;;;;;;;;;;;;5006560;28;1910;-72
2022/07/29 09:52:51;;;;;;;;;;;;;;;;;;4990716;28;923;-73
2022/07/29 09:55:17;;;;;;;;;;;;;;;;;;4991335;28;1127;-72
2022/07/29 09:57:43;;;;;;;;;;;;;;;;;;4991052;28;925;-72
2022/07/29 10:00:10;;;;;;;;;;;;;;;;;;4991002;28;1072;-72
2022/07/29 10:02:43;;;;;;;;;;;;;;;;;;4990607;28;1344;-72
2022/07/29 10:05:16;;;;;;;;;;;;;;;;;;4991177;28;878;-73
2022/07/29 10:07:43;;;;;;;;;;;;;;;;;;4989098;28;906;-72
2022/07/29 10:10:10;;;;;;;;;;;;;;;;;;4989329;28;1918;-73
2022/07/29 10:12:36;;;;;;;;;;;;;;;;;;4990392;28;1376;-72
2022/07/29 10:15:02;;;;;;;;;;;;;;;;;;4991109;28;783;-72
2022/07/29 10:17:28;;;;;;;;;;;;;;;;;;4990989;28;869;-72
2022/07/29 10:19:56;;;;;;;;;;;;;;;;;;4990749;28;1072;-72
2022/07/29 10:22:22;;;;;;;;;;;;;;;;;;5024155;28;1329;-72
2022/07/29 10:24:48;;;;;;;;;;;;;;;;;;5039532;28;1216;-73
2022/07/29 10:27:14;;;;;;;;;;;;;;;;;;5023643;28;1267;-72
2022/07/29 10:29:40;;;;;;;;;;;;;;;;;;5051084;28;1918;-72
2022/07/29 10:32:09;;;;;;;;;;;;;;;;;;5053938;28;1302;-72
2022/07/29 10:34:37;;;;;;;;;;;;;;;;;;5053998;28;1079;-72
2022/07/29 10:37:08;;;;;;;;;;;;;;;;;;5053815;28;1138;-72
2022/07/29 10:39:39;;;;;;;;;;;;;;;;;;5053792;28;949;-73
2022/07/29 10:42:11;;;;;;;;;;;;;;;;;;5053486;28;1289;-72
2022/07/29 10:44:39;;;;;;;;;;;;;;;;;;5053432;28;1122;-73
2022/07/29 10:47:06;;;;;;;;;;;;;;;;;;5053841;28;1068;-73
2022/07/29 10:49:32;;;;;;;;;;;;;;;;;;5053499;28;1971;-73
2022/07/29 10:52:00;;;;;;;;;;;;;;;;;;5049832;28;1427;-73
2022/07/29 10:54:42;;;;;;;;;;;;;;;;;;5044116;28;1160;-73
2022/07/29 10:57:15;;;;;;;;;;;;;;;;;;5044153;28;1246;-74
2022/07/29 10:59:43;;;;;;;;;;;;;;;;;;5035493;28;1314;-73
2022/07/29 11:02:27;;;;;;;;;;;;;;;;;;5036725;28;1298;-73
2022/07/29 11:05:01;;;;;;;;;;;;;;;;;;5045067;28;1137;-73
2022/07/29 11:07:29;;;;;;;;;;;;;;;;;;5033519;28;1064;-74
2022/07/29 11:10:25;;;;;;;;;;;;;;;;;;5038249;28;1981;-73
2022/07/29 11:12:53;;;;;;;;;;;;;;;;;;4957123;28;1500;-73
2022/07/29 11:15:20;;;;;;;;;;;;;;;;;;5014078;28;1548;-73
2022/07/29 11:18:07;;;;;;;;;;;;;;;;;;5032937;28;1071;-73
2022/07/29 11:20:34;;;;;;;;;;;;;;;;;;5029343;28;1489;-73
2022/07/29 11:23:01;;;;;;;;;;;;;;;;;;5033011;28;1465;-74
2022/07/29 11:25:27;;;;;;;;;;;;;;;;;;5033208;28;1291;-73
2022/07/29 11:27:55;;;;;;;;;;;;;;;;;;5015440;28;1242;-73
2022/07/29 11:30:21;;;;;;;;;;;;;;;;;;5035468;28;1918;-73
2022/07/29 11:32:48;;;;;;;;;;;;;;;;;;5032673;28;802;-73
2022/07/29 11:35:15;;;;;;;;;;;;;;;;;;5032905;28;1126;-73
2022/07/29 11:37:41;;;;;;;;;;;;;;;;;;5015023;28;1255;-73
2022/07/29 11:40:18;;;;;;;;;;;;;;;;;;5032700;28;849;-74
2022/07/29 11:42:48;;;;;;;;;;;;;;;;;;5032142;28;1053;-73
2022/07/29 11:45:17;;;;;;;;;;;;;;;;;;5033237;28;940;-74
2022/07/29 11:47:47;;;;;;;;;;;;;;;;;;5032873;28;1020;-73
2022/07/29 11:50:15;;;;;;;;;;;;;;;;;;5033096;28;1899;-74
2022/07/29 11:52:45;;;;;;;;;;;;;;;;;;5032119;28;1333;-74
2022/07/29 11:55:12;;;;;;;;;;;;;;;;;;5032791;28;964;-74
2022/07/29 11:57:38;;;;;;;;;;;;;;;;;;5032677;28;893;-73
2022/07/29 12:00:06;;;;;;;;;;;;;;;;;;5032845;28;1079;-74
2022/07/29 12:02:41;;;;;;;;;;;;;;;;;;5033736;28;1294;-73
2022/07/29 12:05:08;;;;;;;;;;;;;;;;;;5043241;28;1236;-73
2022/07/29 12:07:35;;;;;;;;;;;;;;;;;;5041652;28;1251;-74
2022/07/29 12:10:01;;;;;;;;;;;;;;;;;;5042441;28;1934;-74
2022/07/29 12:12:27;;;;;;;;;;;;;;;;;;5040370;28;1413;-73
2022/07/29 12:14:55;;;;;;;;;;;;;;;;;;5042307;28;1239;-74
2022/07/29 12:17:27;;;;;;;;;;;;;;;;;;5042374;28;1247;-73
2022/07/29 12:19:55;;;;;;;;;;;;;;;;;;5041039;28;1251;-74
2022/07/29 12:22:27;;;;;;;;;;;;;;;;;;5042195;28;1475;-74
2022/07/29 12:24:54;;;;;;;;;;;;;;;;;;5028517;28;1436;-74
2022/07/29 12:27:20;;;;;;;;;;;;;;;;;;5051018;28;1237;-73
2022/07/29 12:29:46;;;;;;;;;;;;;;;;;;5050086;28;1910;-72
2022/07/29 12:32:12;;;;;;;;;;;;;;;;;;5050721;28;1410;-72
2022/07/29 12:34:38;;;;;;;;;;;;;;;;;;5054031;28;1399;-72
2022/07/29 12:37:09;;;;;;;;;;;;;;;;;;5060511;28;1300;-72
2022/07/29 12:39:35;;;;;;;;;;;;;;;;;;5053571;28;1241;-72
2022/07/29 12:42:06;;;;;;;;;;;;;;;;;;5070812;28;1414;-73
2022/07/29 12:44:45;;;;;;;;;;;;;;;;;;5070292;28;1380;-73
2022/07/29 12:47:11;;;;;;;;;;;;;;;;;;5070270;28;1415;-73
2022/07/29 12:49:37;;;;;;;;;;;;;;;;;;5034119;28;1918;-73
2022/07/29 12:52:18;;;;;;;;;;;;;;;;;;5055352;28;1418;-73
2022/07/29 12:54:48;;;;;;;;;;;;;;;;;;5052549;28;1515;-73
2022/07/29 12:57:14;;;;;;;;;;;;;;;;;;5049241;28;1482;-73
2022/07/29 12:59:40;;;;;;;;;;;;;;;;;;5038890;28;1379;-73
2022/07/29 13:02:07;;;;;;;;;;;;;;;;;;5038397;28;1508;-74
2022/07/29 13:04:36;;;;;;;;;;;;;;;;;;5053975;28;1515;-73
2022/07/29 13:07:03;;;;;;;;;;;;;;;;;;5052613;28;1344;-74
2022/07/29 13:09:37;;;;;;;;;;;;;;;;;;5062851;28;995;-74
2022/07/29 13:12:09;;;;;;;;;;;;;;;;;;5051095;28;1500;-74
2022/07/29 13:14:36;;;;;;;;;;;;;;;;;;5062188;28;1153;-73
2022/07/29 13:17:04;;;;;;;;;;;;;;;;;;5058927;28;1424;-74
2022/07/29 13:19:34;;;;;;;;;;;;;;;;;;5058438;28;1337;-73
2022/07/29 13:22:00;;;;;;;;;;;;;;;;;;5052094;28;1507;-73
2022/07/29 13:24:26;;;;;;;;;;;;;;;;;;5040656;28;1560;-74
2022/07/29 13:26:52;;;;;;;;;;;;;;;;;;5054989;28;1213;-74
2022/07/29 13:29:20;;;;;;;;;;;;;;;;;;5050380;28;1063;-74
2022/07/29 13:31:46;;;;;;;;;;;;;;;;;;5050081;28;2327;-73
2022/07/29 13:34:12;;;;;;;;;;;;;;;;;;5049449;28;1131;-73
2022/07/29 13:36:38;;;;;;;;;;;;;;;;;;5048767;28;1246;-73
2022/07/29 13:39:04;;;;;;;;;;;;;;;;;;5050335;28;1111;-73
2022/07/29 13:41:30;;;;;;;;;;;;;;;;;;5049424;28;1336;-74
2022/07/29 13:43:57;;;;;;;;;;;;;;;;;;5050499;28;650;-74
2022/07/29 13:46:24;;;;;;;;;;;;;;;;;;5051938;28;1408;-73
2022/07/29 13:48:50;;;;;;;;;;;;;;;;;;5058302;28;1416;-73
2022/07/29 13:51:17;;;;;;;;;;;;;;;;;;5051920;28;1966;-73
2022/07/29 13:53:43;;;;;;;;;;;;;;;;;;5056297;28;1075;-73
2022/07/29 13:56:09;;;;;;;;;;;;;;;;;;5050023;28;1122;-73
2022/07/29 13:58:35;;;;;;;;;;;;;;;;;;5046691;28;945;-73
2022/07/29 14:01:02;;;;;;;;;;;;;;;;;;5049934;28;1313;-73
2022/07/29 14:03:29;;;;;;;;;;;;;;;;;;5049736;28;973;-73
2022/07/29 14:05:56;;;;;;;;;;;;;;;;;;5049372;28;1440;-73
2022/07/29 14:08:22;;;;;;;;;;;;;;;;;;5060225;28;1460;-73
2022/07/29 14:10:48;;;;;;;;;;;;;;;;;;5046878;28;1980;-73
2022/07/29 14:13:15;;;;;;;;;;;;;;;;;;5051458;28;1217;-72
2022/07/29 14:15:41;;;;;;;;;;;;;;;;;;5049239;28;1404;-73
2022/07/29 14:18:07;;;;;;;;;;;;;;;;;;5033770;28;1526;-73
2022/07/29 14:20:35;;;;;;;;;;;;;;;;;;5060409;28;1476;-73
2022/07/29 14:23:01;;;;;;;;;;;;;;;;;;5049646;28;1072;-73
2022/07/29 14:25:27;;;;;;;;;;;;;;;;;;5048403;28;1139;-73
2022/07/29 14:27:54;;;;;;;;;;;;;;;;;;5069458;28;897;-73
2022/07/29 14:30:20;;;;;;;;;;;;;;;;;;5064809;28;1976;-73
2022/07/29 14:32:46;;;;;;;;;;;;;;;;;;5057565;28;1178;-73
2022/07/29 14:35:13;;;;;;;;;;;;;;;;;;5050036;28;941;-73
2022/07/29 14:37:41;;;;;;;;;;;;;;;;;;5033681;28;1424;-72
2022/07/29 14:40:07;;;;;;;;;;;;;;;;;;5037414;28;1491;-73
2022/07/29 14:42:34;;;;;;;;;;;;;;;;;;5021012;28;1629;-73
2022/07/29 14:45:00;;;;;;;;;;;;;;;;;;5044662;28;1320;-74
2022/07/29 14:47:26;;;;;;;;;;;;;;;;;;5045985;28;1467;-73
2022/07/29 14:49:52;;;;;;;;;;;;;;;;;;5057547;28;1818;-73
2022/07/29 14:52:18;;;;;;;;;;;;;;;;;;5046109;28;1952;-73
2022/07/29 14:54:46;;;;;;;;;;;;;;;;;;5044385;28;1224;-73
2022/07/29 14:57:12;;;;;;;;;;;;;;;;;;5035162;28;1479;-75
2022/07/29 14:59:39;;;;;;;;;;;;;;;;;;5061081;28;1197;-75
2022/07/29 15:02:05;;;;;;;;;;;;;;;;;;5058634;28;1400;-74
2022/07/29 15:04:31;;;;;;;;;;;;;;;;;;5040162;28;1476;-74
2022/07/29 15:06:57;;;;;;;;;;;;;;;;;;5049884;28;1459;-73
2022/07/29 15:09:23;;;;;;;;;;;;;;;;;;5052756;28;1388;-74
2022/07/29 15:11:51;;;;;;;;;;;;;;;;;;5029124;28;1914;-74
2022/07/29 15:14:17;;;;;;;;;;;;;;;;;;5053148;28;1285;-74
2022/07/29 15:16:43;;;;;;;;;;;;;;;;;;5047579;28;1425;-73
2022/07/29 15:19:09;;;;;;;;;;;;;;;;;;5056976;28;1373;-74
2022/07/29 15:21:36;;;;;;;;;;;;;;;;;;5051830;28;1456;-74
2022/07/29 15:24:02;;;;;;;;;;;;;;;;;;5064307;28;1248;-75
2022/07/29 15:26:28;;;;;;;;;;;;;;;;;;5076056;22;3710;-76
2022/07/29 15:28:56;;;;;;;;;;;;;;;;;;5047797;28;2022;-75
2022/07/29 15:31:22;;;;;;;;;;;;;;;;;;5052597;28;1985;-75
2022/07/29 15:33:48;;;;;;;;;;;;;;;;;;5052791;28;960;-74
2022/07/29 15:36:14;;;;;;;;;;;;;;;;;;5048562;28;1397;-74
2022/07/29 15:38:41;;;;;;;;;;;;;;;;;;5031867;28;1447;-74
2022/07/29 15:41:07;;;;;;;;;;;;;;;;;;5030679;28;1472;-75
2022/07/29 15:43:34;;;;;;;;;;;;;;;;;;5031939;28;1251;-73
2022/07/29 15:48:46;;;;;;;;;;;;;;;;;;5043027;28;1149;-75
2022/07/29 15:51:12;;;;;;;;;;;;;;;;;;5032435;28;1918;-74
2022/07/29 15:53:38;;;;;;;;;;;;;;;;;;5030955;28;1396;-74
2022/07/29 15:56:05;;;;;;;;;;;;;;;;;;5040524;28;1311;-74
2022/07/29 15:58:31;;;;;;;;;;;;;;;;;;5037257;28;1430;-74
2022/07/29 16:00:57;;;;;;;;;;;;;;;;;;5033979;28;1569;-74
2022/07/29 16:03:25;;;;;;;;;;;;;;;;;;5047997;28;1439;-77
2022/07/29 16:05:51;;;;;;;;;;;;;;;;;;5030909;28;1455;-75
2022/07/29 16:08:17;;;;;;;;;;;;;;;;;;5039712;28;1434;-75
2022/07/29 16:10:43;;;;;;;;;;;;;;;;;;5035582;28;1914;-75
2022/07/29 16:13:09;;;;;;;;;;;;;;;;;;5040031;28;1184;-75
2022/07/29 16:15:36;;;;;;;;;;;;;;;;;;5049990;28;1071;-75
2022/07/29 16:18:02;;;;;;;;;;;;;;;;;;5036909;28;1441;-76
2022/07/29 16:20:29;;;;;;;;;;;;;;;;;;5052459;28;1332;-76
2022/07/29 16:22:56;;;;;;;;;;;;;;;;;;5029916;28;1072;-75
2022/07/29 16:25:22;;;;;;;;;;;;;;;;;;5036545;28;1445;-75
2022/07/29 16:27:48;;;;;;;;;;;;;;;;;;5043034;28;1495;-75
2022/07/29 16:30:14;;;;;;;;;;;;;;;;;;5050260;28;1063;-76
2022/07/29 16:32:41;;;;;;;;;;;;;;;;;;5049601;28;2040;-76
2022/07/29 16:35:07;;;;;;;;;;;;;;;;;;5040325;28;1471;-76
2022/07/29 16:37:36;;;;;;;;;;;;;;;;;;5036567;28;1424;-76
2022/07/29 16:40:02;;;;;;;;;;;;;;;;;;5034745;28;1397;-75
2022/07/29 16:42:28;;;;;;;;;;;;;;;;;;5034735;28;1352;-75
2022/07/29 16:44:54;;;;;;;;;;;;;;;;;;5033118;28;1157;-76
2022/07/29 16:47:20;;;;;;;;;;;;;;;;;;5029956;28;1416;-76
2022/07/29 16:49:46;;;;;;;;;;;;;;;;;;5030307;28;1075;-77
2022/07/29 16:52:13;;;;;;;;;;;;;;;;;;5028810;28;1983;-76
2022/07/29 16:54:41;;;;;;;;;;;;;;;;;;5037918;28;1125;-77
2022/07/29 16:57:07;;;;;;;;;;;;;;;;;;5047711;28;1409;-76
2022/07/29 16:59:33;;;;;;;;;;;;;;;;;;5049731;28;1095;-76
2022/07/29 17:02:01;;;;;;;;;;;;;;;;;;5053067;28;1424;-76
2022/07/29 17:04:27;;;;;;;;;;;;;;;;;;5035579;28;1130;-76
2022/07/29 17:06:53;;;;;;;;;;;;;;;;;;5030621;28;1480;-78
2022/07/29 17:09:19;;;;;;;;;;;;;;;;;;5030962;28;1463;-78
2022/07/29 17:11:51;;;;;;;;;;;;;;;;;;5029555;28;1948;-78
2022/07/29 17:14:17;;;;;;;;;;;;;;;;;;5029130;28;1382;-79